sensor_id;sensor_type;location;lat;lon;timestamp;pressure;altitude;pressure_sealevel;temperature;humidity
34374;BME280;20637;55.770;37.592;2023-06-01T00:01:30;99269.34;;;12.29;67.21
34374;BME280;20637;55.770;37.592;2023-06-01T00:03:59;99268.34;;;12.30;67.80
34374;BME280;20637;55.770;37.592;2023-06-01T00:06:24;99265.81;;;12.29;67.64
34374;BME280;20637;55.770;37.592;2023-06-01T00:08:53;99272.91;;;12.30;66.97
34374;BME280;20637;55.770;37.592;2023-06-01T00:11:19;99265.63;;;12.30;67.24
34374;BME280;20637;55.770;37.592;2023-06-01T00:13:44;99261.06;;;12.31;67.31
34374;BME280;20637;55.770;37.592;2023-06-01T00:16:11;99262.25;;;12.28;67.19
34374;BME280;20637;55.770;37.592;2023-06-01T00:18:37;99264.31;;;12.26;67.04
34374;BME280;20637;55.770;37.592;2023-06-01T00:21:03;99268.03;;;12.25;67.26
34374;BME280;20637;55.770;37.592;2023-06-01T00:23:28;99265.34;;;12.25;67.32
34374;BME280;20637;55.770;37.592;2023-06-01T00:25:54;99258.91;;;12.26;67.12
34374;BME280;20637;55.770;37.592;2023-06-01T00:28:19;99262.84;;;12.24;66.93
34374;BME280;20637;55.770;37.592;2023-06-01T00:30:45;99254.91;;;12.22;67.12
34374;BME280;20637;55.770;37.592;2023-06-01T00:33:10;99258.44;;;12.23;67.41
34374;BME280;20637;55.770;37.592;2023-06-01T00:35:35;99248.47;;;12.23;67.41
34374;BME280;20637;55.770;37.592;2023-06-01T00:38:01;99251.16;;;12.23;67.28
34374;BME280;20637;55.770;37.592;2023-06-01T00:40:26;99256.94;;;12.20;67.22
34374;BME280;20637;55.770;37.592;2023-06-01T00:42:52;99253.22;;;12.21;67.33
34374;BME280;20637;55.770;37.592;2023-06-01T00:45:17;99258.63;;;12.21;67.30
34374;BME280;20637;55.770;37.592;2023-06-01T00:47:43;99251.34;;;12.22;67.00
34374;BME280;20637;55.770;37.592;2023-06-01T00:50:09;99249.03;;;12.19;67.23
34374;BME280;20637;55.770;37.592;2023-06-01T00:52:35;99254.81;;;12.16;66.75
34374;BME280;20637;55.770;37.592;2023-06-01T00:55:01;99254.16;;;12.14;67.19
34374;BME280;20637;55.770;37.592;2023-06-01T00:57:27;99254.34;;;12.12;66.91
34374;BME280;20637;55.770;37.592;2023-06-01T00:59:54;99243.31;;;12.14;66.80
34374;BME280;20637;55.770;37.592;2023-06-01T01:02:20;99249.41;;;12.16;66.68
34374;BME280;20637;55.770;37.592;2023-06-01T01:04:46;99253.75;;;12.17;66.39
34374;BME280;20637;55.770;37.592;2023-06-01T01:07:21;99251.44;;;12.14;66.51
34374;BME280;20637;55.770;37.592;2023-06-01T01:09:56;99249.13;;;12.11;66.70
34374;BME280;20637;55.770;37.592;2023-06-01T01:12:31;99253.50;;;12.12;66.61
34374;BME280;20637;55.770;37.592;2023-06-01T01:17:28;99250.41;;;12.15;66.40
34374;BME280;20637;55.770;37.592;2023-06-01T01:25:07;99253.50;;;12.12;66.72
34374;BME280;20637;55.770;37.592;2023-06-01T01:30:22;99243.03;;;12.09;66.27
34374;BME280;20637;55.770;37.592;2023-06-01T01:32:49;99245.56;;;12.10;66.62
34374;BME280;20637;55.770;37.592;2023-06-01T01:35:16;99242.22;;;12.08;66.65
34374;BME280;20637;55.770;37.592;2023-06-01T01:37:51;99227.47;;;12.11;66.09
34374;BME280;20637;55.770;37.592;2023-06-01T01:40:17;99229.34;;;12.10;66.48
34374;BME280;20637;55.770;37.592;2023-06-01T01:42:43;99231.66;;;12.13;65.77
34374;BME280;20637;55.770;37.592;2023-06-01T01:45:08;99236.72;;;12.16;66.21
34374;BME280;20637;55.770;37.592;2023-06-01T01:47:45;99239.44;;;12.16;65.74
34374;BME280;20637;55.770;37.592;2023-06-01T01:50:14;99233.53;;;12.13;66.01
34374;BME280;20637;55.770;37.592;2023-06-01T01:52:41;99241.84;;;12.11;66.03
34374;BME280;20637;55.770;37.592;2023-06-01T01:55:07;99244.56;;;12.11;65.86
34374;BME280;20637;55.770;37.592;2023-06-01T01:57:33;99232.59;;;12.06;65.81
34374;BME280;20637;55.770;37.592;2023-06-01T02:00:00;99240.06;;;12.04;65.38
34374;BME280;20637;55.770;37.592;2023-06-01T02:02:26;99239.88;;;12.05;65.59
34374;BME280;20637;55.770;37.592;2023-06-01T02:04:52;99236.81;;;12.08;65.57
34374;BME280;20637;55.770;37.592;2023-06-01T02:07:17;99238.28;;;12.11;65.62
34374;BME280;20637;55.770;37.592;2023-06-01T02:09:43;99235.88;;;12.16;65.74
34374;BME280;20637;55.770;37.592;2023-06-01T02:12:10;99237.34;;;12.18;65.07
34374;BME280;20637;55.770;37.592;2023-06-01T02:14:36;99235.13;;;12.22;64.87
34374;BME280;20637;55.770;37.592;2023-06-01T02:17:01;99239.13;;;12.26;65.29
34374;BME280;20637;55.770;37.592;2023-06-01T02:19:28;99243.97;;;12.30;64.96
34374;BME280;20637;55.770;37.592;2023-06-01T02:21:55;99240.03;;;12.33;64.60
34374;BME280;20637;55.770;37.592;2023-06-01T02:24:20;99236.50;;;12.32;64.18
34374;BME280;20637;55.770;37.592;2023-06-01T02:26:46;99248.81;;;12.35;63.73
34374;BME280;20637;55.770;37.592;2023-06-01T02:29:14;99242.38;;;12.36;63.88
34374;BME280;20637;55.770;37.592;2023-06-01T02:31:40;99245.56;;;12.39;64.21
34374;BME280;20637;55.770;37.592;2023-06-01T02:34:05;99255.44;;;12.47;63.99
34374;BME280;20637;55.770;37.592;2023-06-01T02:36:31;99252.59;;;12.55;63.79
34374;BME280;20637;55.770;37.592;2023-06-01T02:38:57;99251.63;;;12.63;64.02
34374;BME280;20637;55.770;37.592;2023-06-01T02:41:23;99255.09;;;12.71;62.85
34374;BME280;20637;55.770;37.592;2023-06-01T02:43:49;99263.94;;;12.80;62.55
34374;BME280;20637;55.770;37.592;2023-06-01T02:46:17;99260.84;;;12.83;62.11
34374;BME280;20637;55.770;37.592;2023-06-01T02:48:43;99263.38;;;12.84;61.58
34374;BME280;20637;55.770;37.592;2023-06-01T02:51:09;99260.66;;;12.84;61.24
34374;BME280;20637;55.770;37.592;2023-06-01T02:53:34;99263.38;;;12.84;62.08
34374;BME280;20637;55.770;37.592;2023-06-01T02:56:02;99264.00;;;12.86;61.97
34374;BME280;20637;55.770;37.592;2023-06-01T02:58:42;99266.53;;;12.88;61.55
34374;BME280;20637;55.770;37.592;2023-06-01T03:01:20;99266.34;;;12.89;61.29
34374;BME280;20637;55.770;37.592;2023-06-01T03:03:46;99264.28;;;12.92;60.53
34374;BME280;20637;55.770;37.592;2023-06-01T03:06:12;99273.25;;;12.92;60.34
34374;BME280;20637;55.770;37.592;2023-06-01T03:09:01;99267.81;;;12.92;60.46
34374;BME280;20637;55.770;37.592;2023-06-01T03:11:50;99270.16;;;12.95;60.34
34374;BME280;20637;55.770;37.592;2023-06-01T03:14:16;99269.75;;;12.98;60.10
34374;BME280;20637;55.770;37.592;2023-06-01T03:16:41;99266.28;;;13.04;59.59
34374;BME280;20637;55.770;37.592;2023-06-01T03:19:14;99267.41;;;13.10;59.71
34374;BME280;20637;55.770;37.592;2023-06-01T03:21:40;99266.66;;;13.16;59.77
34374;BME280;20637;55.770;37.592;2023-06-01T03:24:06;99259.81;;;13.20;59.11
34374;BME280;20637;55.770;37.592;2023-06-01T03:26:32;99273.25;;;13.28;58.78
34374;BME280;20637;55.770;37.592;2023-06-01T03:28:57;99270.97;;;13.31;58.62
34374;BME280;20637;55.770;37.592;2023-06-01T03:31:23;99268.50;;;13.36;58.29
34374;BME280;20637;55.770;37.592;2023-06-01T03:33:52;99268.13;;;13.40;57.99
34374;BME280;20637;55.770;37.592;2023-06-01T03:36:18;99261.91;;;13.46;58.14
34374;BME280;20637;55.770;37.592;2023-06-01T03:38:43;99269.66;;;13.49;57.60
34374;BME280;20637;55.770;37.592;2023-06-01T03:41:09;99269.06;;;13.53;56.97
34374;BME280;20637;55.770;37.592;2023-06-01T03:43:34;99266.63;;;13.58;56.67
34374;BME280;20637;55.770;37.592;2023-06-01T03:46:00;99272.28;;;13.63;57.05
34374;BME280;20637;55.770;37.592;2023-06-01T03:48:26;99260.66;;;13.69;56.88
34374;BME280;20637;55.770;37.592;2023-06-01T03:50:51;99266.97;;;13.76;56.87
34374;BME280;20637;55.770;37.592;2023-06-01T03:53:17;99258.66;;;13.84;56.76
34374;BME280;20637;55.770;37.592;2023-06-01T03:55:42;99257.50;;;13.94;56.07
34374;BME280;20637;55.770;37.592;2023-06-01T03:58:28;99257.53;;;14.00;56.71
34374;BME280;20637;55.770;37.592;2023-06-01T04:00:55;99255.28;;;14.10;56.41
34374;BME280;20637;55.770;37.592;2023-06-01T04:03:22;99250.94;;;14.16;56.72
34374;BME280;20637;55.770;37.592;2023-06-01T04:05:48;99259.34;;;14.21;56.38
34374;BME280;20637;55.770;37.592;2023-06-01T04:08:15;99254.56;;;14.29;56.13
34374;BME280;20637;55.770;37.592;2023-06-01T04:10:41;99252.53;;;14.38;56.65
34374;BME280;20637;55.770;37.592;2023-06-01T04:13:07;99250.69;;;14.45;56.17
34374;BME280;20637;55.770;37.592;2023-06-01T04:15:33;99254.50;;;14.51;54.96
34374;BME280;20637;55.770;37.592;2023-06-01T04:17:59;99244.91;;;14.55;54.60
34374;BME280;20637;55.770;37.592;2023-06-01T04:20:26;99246.78;;;14.61;54.55
34374;BME280;20637;55.770;37.592;2023-06-01T04:22:51;99246.59;;;14.69;54.63
34374;BME280;20637;55.770;37.592;2023-06-01T04:25:18;99243.28;;;14.73;54.81
34374;BME280;20637;55.770;37.592;2023-06-01T04:27:47;99245.81;;;14.82;54.46
34374;BME280;20637;55.770;37.592;2023-06-01T04:30:12;99248.53;;;14.88;54.00
34374;BME280;20637;55.770;37.592;2023-06-01T04:32:38;99248.34;;;14.90;53.18
34374;BME280;20637;55.770;37.592;2023-06-01T04:35:05;99247.94;;;14.93;53.43
34374;BME280;20637;55.770;37.592;2023-06-01T04:37:35;99233.75;;;14.97;53.30
34374;BME280;20637;55.770;37.592;2023-06-01T04:40:02;99235.00;;;15.01;53.71
34374;BME280;20637;55.770;37.592;2023-06-01T04:42:35;99236.03;;;15.07;53.62
34374;BME280;20637;55.770;37.592;2023-06-01T04:45:01;99243.16;;;15.14;53.83
34374;BME280;20637;55.770;37.592;2023-06-01T04:47:32;99238.56;;;15.21;53.81
34374;BME280;20637;55.770;37.592;2023-06-01T04:49:58;99240.06;;;15.31;53.72
34374;BME280;20637;55.770;37.592;2023-06-01T04:52:24;99234.22;;;15.40;53.02
34374;BME280;20637;55.770;37.592;2023-06-01T04:54:50;99237.34;;;15.44;52.89
34374;BME280;20637;55.770;37.592;2023-06-01T04:57:16;99239.06;;;15.51;52.50
34374;BME280;20637;55.770;37.592;2023-06-01T04:59:41;99230.03;;;15.57;52.14
34374;BME280;20637;55.770;37.592;2023-06-01T05:02:07;99225.84;;;15.61;52.67
34374;BME280;20637;55.770;37.592;2023-06-01T05:04:33;99225.44;;;15.64;52.19
34374;BME280;20637;55.770;37.592;2023-06-01T05:06:59;99228.78;;;15.66;52.17
34374;BME280;20637;55.770;37.592;2023-06-01T05:09:25;99228.38;;;15.69;52.42
34374;BME280;20637;55.770;37.592;2023-06-01T05:11:50;99223.75;;;15.77;52.80
34374;BME280;20637;55.770;37.592;2023-06-01T05:14:16;99236.09;;;15.86;51.89
34374;BME280;20637;55.770;37.592;2023-06-01T05:16:41;99228.97;;;15.85;51.47
34374;BME280;20637;55.770;37.592;2023-06-01T05:19:07;99235.06;;;15.87;51.24
34374;BME280;20637;55.770;37.592;2023-06-01T05:21:33;99227.69;;;15.87;51.11
34374;BME280;20637;55.770;37.592;2023-06-01T05:23:59;99224.97;;;15.87;50.78
34374;BME280;20637;55.770;37.592;2023-06-01T05:26:25;99221.22;;;15.88;50.84
34374;BME280;20637;55.770;37.592;2023-06-01T05:28:52;99225.59;;;15.96;50.84
34374;BME280;20637;55.770;37.592;2023-06-01T05:31:18;99222.88;;;16.02;50.92
34374;BME280;20637;55.770;37.592;2023-06-01T05:33:50;99216.38;;;16.10;50.70
34374;BME280;20637;55.770;37.592;2023-06-01T05:36:17;99223.69;;;16.16;50.87
34374;BME280;20637;55.770;37.592;2023-06-01T05:38:42;99223.63;;;16.23;50.57
34374;BME280;20637;55.770;37.592;2023-06-01T05:41:08;99223.25;;;16.26;50.31
34374;BME280;20637;55.770;37.592;2023-06-01T05:43:37;99231.56;;;16.31;49.97
34374;BME280;20637;55.770;37.592;2023-06-01T05:46:03;99229.25;;;16.34;49.61
34374;BME280;20637;55.770;37.592;2023-06-01T05:48:29;99222.81;;;16.29;49.09
34374;BME280;20637;55.770;37.592;2023-06-01T05:50:55;99227.19;;;16.30;49.32
34374;BME280;20637;55.770;37.592;2023-06-01T05:53:20;99214.81;;;16.34;49.36
34374;BME280;20637;55.770;37.592;2023-06-01T05:55:52;99216.88;;;16.38;49.42
34374;BME280;20637;55.770;37.592;2023-06-01T05:58:19;99217.69;;;16.45;49.85
34374;BME280;20637;55.770;37.592;2023-06-01T06:00:44;99216.19;;;16.56;49.43
34374;BME280;20637;55.770;37.592;2023-06-01T06:03:11;99220.59;;;16.63;49.86
34374;BME280;20637;55.770;37.592;2023-06-01T06:05:37;99219.28;;;16.73;49.71
34374;BME280;20637;55.770;37.592;2023-06-01T06:08:02;99227.00;;;16.82;49.31
34374;BME280;20637;55.770;37.592;2023-06-01T06:10:27;99226.09;;;16.88;48.95
34374;BME280;20637;55.770;37.592;2023-06-01T06:12:53;99225.91;;;16.90;49.01
34374;BME280;20637;55.770;37.592;2023-06-01T06:15:19;99226.47;;;16.98;48.78
34374;BME280;20637;55.770;37.592;2023-06-01T06:17:44;99226.25;;;17.00;48.48
34374;BME280;20637;55.770;37.592;2023-06-01T06:20:10;99221.19;;;17.03;48.45
34374;BME280;20637;55.770;37.592;2023-06-01T06:22:36;99223.06;;;17.09;48.64
34374;BME280;20637;55.770;37.592;2023-06-01T06:25:01;99211.50;;;17.14;48.12
34374;BME280;20637;55.770;37.592;2023-06-01T06:27:28;99215.22;;;17.20;47.91
34374;BME280;20637;55.770;37.592;2023-06-01T06:29:54;99209.75;;;17.20;47.67
34374;BME280;20637;55.770;37.592;2023-06-01T06:32:19;99207.22;;;17.25;48.04
34374;BME280;20637;55.770;37.592;2023-06-01T06:34:45;99209.88;;;17.31;46.61
34374;BME280;20637;55.770;37.592;2023-06-01T06:37:11;99203.16;;;17.34;47.02
34374;BME280;20637;55.770;37.592;2023-06-01T06:39:36;99207.09;;;17.38;47.27
34374;BME280;20637;55.770;37.592;2023-06-01T06:42:03;99199.91;;;17.43;46.56
34374;BME280;20637;55.770;37.592;2023-06-01T06:44:28;99205.75;;;17.47;46.74
34374;BME280;20637;55.770;37.592;2023-06-01T06:46:54;99206.31;;;17.55;46.93
34374;BME280;20637;55.770;37.592;2023-06-01T06:49:19;99193.88;;;17.66;46.86
34374;BME280;20637;55.770;37.592;2023-06-01T06:51:45;99185.59;;;17.73;47.02
34374;BME280;20637;55.770;37.592;2023-06-01T06:54:11;99195.19;;;17.82;46.77
34374;BME280;20637;55.770;37.592;2023-06-01T06:56:36;99198.09;;;17.87;46.92
34374;BME280;20637;55.770;37.592;2023-06-01T06:59:02;99186.88;;;17.95;46.87
34374;BME280;20637;55.770;37.592;2023-06-01T07:01:27;99192.47;;;18.00;46.82
34374;BME280;20637;55.770;37.592;2023-06-01T07:03:53;99179.13;;;18.10;47.17
34374;BME280;20637;55.770;37.592;2023-06-01T07:06:20;99181.09;;;18.21;46.87
34374;BME280;20637;55.770;37.592;2023-06-01T07:08:46;99172.28;;;18.19;45.86
34374;BME280;20637;55.770;37.592;2023-06-01T07:11:11;99169.34;;;18.21;46.30
34374;BME280;20637;55.770;37.592;2023-06-01T07:13:37;99167.44;;;18.21;46.26
34374;BME280;20637;55.770;37.592;2023-06-01T07:16:03;99158.56;;;18.26;45.83
34374;BME280;20637;55.770;37.592;2023-06-01T07:18:30;99158.25;;;18.34;44.88
34374;BME280;20637;55.770;37.592;2023-06-01T07:20:55;99161.00;;;18.34;45.12
34374;BME280;20637;55.770;37.592;2023-06-01T07:23:21;99154.44;;;18.35;45.47
34374;BME280;20637;55.770;37.592;2023-06-01T07:25:46;99158.53;;;18.44;45.29
34374;BME280;20637;55.770;37.592;2023-06-01T07:28:11;99158.84;;;18.54;44.40
34374;BME280;20637;55.770;37.592;2023-06-01T07:30:38;99156.63;;;18.63;44.14
34374;BME280;20637;55.770;37.592;2023-06-01T07:33:04;99163.78;;;18.64;44.38
34374;BME280;20637;55.770;37.592;2023-06-01T07:35:29;99150.31;;;18.62;43.35
34374;BME280;20637;55.770;37.592;2023-06-01T07:37:55;99151.53;;;18.66;43.33
34374;BME280;20637;55.770;37.592;2023-06-01T07:40:20;99139.31;;;18.69;43.41
34374;BME280;20637;55.770;37.592;2023-06-01T07:42:46;99152.19;;;18.80;43.73
34374;BME280;20637;55.770;37.592;2023-06-01T07:45:12;99132.25;;;18.91;43.23
34374;BME280;20637;55.770;37.592;2023-06-01T07:47:38;99136.28;;;19.00;43.28
34374;BME280;20637;55.770;37.592;2023-06-01T07:50:04;99136.09;;;19.13;43.07
34374;BME280;20637;55.770;37.592;2023-06-01T07:52:29;99145.38;;;19.24;42.72
34374;BME280;20637;55.770;37.592;2023-06-01T07:54:55;99138.16;;;19.29;42.56
34374;BME280;20637;55.770;37.592;2023-06-01T07:57:20;99138.72;;;19.31;42.33
34374;BME280;20637;55.770;37.592;2023-06-01T07:59:46;99134.72;;;19.34;42.22
34374;BME280;20637;55.770;37.592;2023-06-01T08:02:11;99133.53;;;19.41;41.97
34374;BME280;20637;55.770;37.592;2023-06-01T08:04:39;99124.88;;;19.44;41.69
34374;BME280;20637;55.770;37.592;2023-06-01T08:07:04;99126.28;;;19.47;41.99
34374;BME280;20637;55.770;37.592;2023-06-01T08:09:31;99129.50;;;19.56;42.24
34374;BME280;20637;55.770;37.592;2023-06-01T08:11:57;99129.63;;;19.61;42.13
34374;BME280;20637;55.770;37.592;2023-06-01T08:14:22;99123.31;;;19.72;41.78
34374;BME280;20637;55.770;37.592;2023-06-01T08:16:48;99122.09;;;19.79;41.32
34374;BME280;20637;55.770;37.592;2023-06-01T08:19:13;99125.91;;;19.90;41.33
34374;BME280;20637;55.770;37.592;2023-06-01T08:21:39;99120.41;;;19.90;41.31
34374;BME280;20637;55.770;37.592;2023-06-01T08:24:06;99129.69;;;19.89;41.58
34374;BME280;20637;55.770;37.592;2023-06-01T08:26:33;99116.00;;;19.89;41.41
34374;BME280;20637;55.770;37.592;2023-06-01T08:28:58;99127.44;;;19.86;40.91
34374;BME280;20637;55.770;37.592;2023-06-01T08:31:24;99120.06;;;19.86;41.06
34374;BME280;20637;55.770;37.592;2023-06-01T08:33:50;99122.31;;;19.89;41.10
34374;BME280;20637;55.770;37.592;2023-06-01T08:36:16;99112.44;;;20.00;40.90
34374;BME280;20637;55.770;37.592;2023-06-01T08:38:41;99101.47;;;20.00;40.94
34374;BME280;20637;55.770;37.592;2023-06-01T08:41:11;99116.94;;;20.06;41.10
34374;BME280;20637;55.770;37.592;2023-06-01T08:43:36;99115.50;;;20.15;40.45
34374;BME280;20637;55.770;37.592;2023-06-01T08:46:04;99108.19;;;20.21;40.67
34374;BME280;20637;55.770;37.592;2023-06-01T08:48:30;99113.09;;;20.30;40.67
34374;BME280;20637;55.770;37.592;2023-06-01T08:50:56;99114.63;;;20.38;40.59
34374;BME280;20637;55.770;37.592;2023-06-01T08:53:23;99112.78;;;20.43;40.41
34374;BME280;20637;55.770;37.592;2023-06-01T08:55:52;99109.59;;;20.47;40.49
34374;BME280;20637;55.770;37.592;2023-06-01T08:58:18;99096.94;;;20.46;40.68
34374;BME280;20637;55.770;37.592;2023-06-01T09:00:43;99102.16;;;20.47;40.69
34374;BME280;20637;55.770;37.592;2023-06-01T09:03:12;99109.44;;;20.53;40.61
34374;BME280;20637;55.770;37.592;2023-06-01T09:05:38;99097.25;;;20.61;40.54
34374;BME280;20637;55.770;37.592;2023-06-01T09:08:04;99093.16;;;20.63;40.89
34374;BME280;20637;55.770;37.592;2023-06-01T09:10:30;99096.34;;;20.72;40.36
34374;BME280;20637;55.770;37.592;2023-06-01T09:12:55;99108.38;;;20.54;40.09
34374;BME280;20637;55.770;37.592;2023-06-01T09:15:21;99086.66;;;20.53;40.36
34374;BME280;20637;55.770;37.592;2023-06-01T09:17:50;99092.81;;;20.60;40.19
34374;BME280;20637;55.770;37.592;2023-06-01T09:20:23;99083.25;;;20.62;40.12
34374;BME280;20637;55.770;37.592;2023-06-01T09:22:48;99078.72;;;20.68;40.27
34374;BME280;20637;55.770;37.592;2023-06-01T09:25:14;99081.56;;;20.73;39.95
34374;BME280;20637;55.770;37.592;2023-06-01T09:27:48;99086.31;;;20.77;38.04
34374;BME280;20637;55.770;37.592;2023-06-01T09:30:14;99082.22;;;20.80;37.89
34374;BME280;20637;55.770;37.592;2023-06-01T09:32:40;99086.56;;;20.92;38.14
34374;BME280;20637;55.770;37.592;2023-06-01T09:35:07;99074.09;;;21.02;37.65
34374;BME280;20637;55.770;37.592;2023-06-01T09:37:33;99074.94;;;21.02;37.69
34374;BME280;20637;55.770;37.592;2023-06-01T09:40:00;99080.63;;;21.12;37.58
34374;BME280;20637;55.770;37.592;2023-06-01T09:42:30;99078.31;;;21.09;36.57
34374;BME280;20637;55.770;37.592;2023-06-01T09:44:55;99081.75;;;21.00;36.62
34374;BME280;20637;55.770;37.592;2023-06-01T09:47:38;99082.50;;;20.95;37.11
34374;BME280;20637;55.770;37.592;2023-06-01T09:50:03;99081.06;;;21.09;37.53
34374;BME280;20637;55.770;37.592;2023-06-01T09:52:29;99089.19;;;21.16;37.55
34374;BME280;20637;55.770;37.592;2023-06-01T09:54:55;99069.28;;;21.25;37.47
34374;BME280;20637;55.770;37.592;2023-06-01T09:57:29;99072.78;;;21.37;37.14
34374;BME280;20637;55.770;37.592;2023-06-01T09:59:54;99057.47;;;21.42;36.93
34374;BME280;20637;55.770;37.592;2023-06-01T10:02:21;99068.78;;;21.45;35.83
34374;BME280;20637;55.770;37.592;2023-06-01T10:04:54;99070.03;;;21.37;35.40
34374;BME280;20637;55.770;37.592;2023-06-01T10:07:22;99083.91;;;21.48;35.31
34374;BME280;20637;55.770;37.592;2023-06-01T10:09:51;99059.03;;;21.54;35.40
34374;BME280;20637;55.770;37.592;2023-06-01T10:12:17;99064.25;;;21.56;35.63
34374;BME280;20637;55.770;37.592;2023-06-01T10:14:42;99079.41;;;21.58;35.70
34374;BME280;20637;55.770;37.592;2023-06-01T10:17:08;99061.06;;;21.64;34.95
34374;BME280;20637;55.770;37.592;2023-06-01T10:19:35;99060.00;;;21.65;33.76
34374;BME280;20637;55.770;37.592;2023-06-01T10:22:02;99071.75;;;21.60;34.01
34374;BME280;20637;55.770;37.592;2023-06-01T10:24:28;99060.94;;;21.54;33.97
34374;BME280;20637;55.770;37.592;2023-06-01T10:29:22;99058.59;;;21.62;34.38
34374;BME280;20637;55.770;37.592;2023-06-01T10:31:48;99060.97;;;21.75;34.38
34374;BME280;20637;55.770;37.592;2023-06-01T10:34:14;99060.28;;;21.85;34.48
34374;BME280;20637;55.770;37.592;2023-06-01T10:37:22;99061.16;;;21.91;33.99
34374;BME280;20637;55.770;37.592;2023-06-01T10:39:29;99063.19;;;21.95;33.77
34374;BME280;20637;55.770;37.592;2023-06-01T10:41:55;99046.13;;;21.93;33.13
34374;BME280;20637;55.770;37.592;2023-06-01T10:52:26;99046.44;;;21.97;33.46
34374;BME280;20637;55.770;37.592;2023-06-01T10:54:52;99056.34;;;21.98;34.11
34374;BME280;20637;55.770;37.592;2023-06-01T10:57:23;99050.28;;;21.96;34.13
34374;BME280;20637;55.770;37.592;2023-06-01T11:02:33;99053.44;;;22.09;33.92
34374;BME280;20637;55.770;37.592;2023-06-01T11:07:42;99051.03;;;22.13;34.28
34374;BME280;20637;55.770;37.592;2023-06-01T11:10:08;99046.50;;;22.23;34.02
34374;BME280;20637;55.770;37.592;2023-06-01T11:13:10;99046.75;;;22.22;34.11
34374;BME280;20637;55.770;37.592;2023-06-01T11:15:31;99050.31;;;22.22;34.05
34374;BME280;20637;55.770;37.592;2023-06-01T11:17:58;99042.00;;;22.17;34.06
34374;BME280;20637;55.770;37.592;2023-06-01T11:20:44;99056.03;;;22.16;33.55
34374;BME280;20637;55.770;37.592;2023-06-01T11:23:10;99042.78;;;22.13;34.04
34374;BME280;20637;55.770;37.592;2023-06-01T11:25:36;99050.88;;;22.24;33.74
34374;BME280;20637;55.770;37.592;2023-06-01T11:28:02;99040.25;;;22.33;34.13
34374;BME280;20637;55.770;37.592;2023-06-01T11:30:27;99031.00;;;22.39;33.91
34374;BME280;20637;55.770;37.592;2023-06-01T11:32:53;99035.59;;;22.33;33.92
34374;BME280;20637;55.770;37.592;2023-06-01T11:35:21;99038.41;;;22.39;34.15
34374;BME280;20637;55.770;37.592;2023-06-01T11:37:51;99036.88;;;22.53;33.97
34374;BME280;20637;55.770;37.592;2023-06-01T11:40:18;99035.28;;;22.57;33.80
34374;BME280;20637;55.770;37.592;2023-06-01T11:42:43;99025.66;;;22.59;33.36
34374;BME280;20637;55.770;37.592;2023-06-01T11:45:13;99030.88;;;22.56;33.35
34374;BME280;20637;55.770;37.592;2023-06-01T11:47:39;99034.81;;;22.65;33.54
34374;BME280;20637;55.770;37.592;2023-06-01T11:50:04;99025.72;;;22.64;33.76
34374;BME280;20637;55.770;37.592;2023-06-01T11:52:30;99035.97;;;22.69;33.78
34374;BME280;20637;55.770;37.592;2023-06-01T11:55:02;99038.81;;;22.79;33.50
34374;BME280;20637;55.770;37.592;2023-06-01T11:57:27;99046.00;;;22.80;33.35
34374;BME280;20637;55.770;37.592;2023-06-01T11:59:53;99039.34;;;22.76;33.63
34374;BME280;20637;55.770;37.592;2023-06-01T12:02:21;99036.66;;;22.81;33.30
34374;BME280;20637;55.770;37.592;2023-06-01T12:07:24;99027.75;;;23.01;33.46
34374;BME280;20637;55.770;37.592;2023-06-01T12:09:53;99027.16;;;22.99;33.46
34374;BME280;20637;55.770;37.592;2023-06-01T12:12:22;99030.91;;;22.88;33.76
34374;BME280;20637;55.770;37.592;2023-06-01T12:14:51;99028.63;;;22.74;33.91
34374;BME280;20637;55.770;37.592;2023-06-01T12:17:17;99029.88;;;22.67;33.84
34374;BME280;20637;55.770;37.592;2023-06-01T12:19:46;99031.94;;;22.76;34.21
34374;BME280;20637;55.770;37.592;2023-06-01T12:22:12;99033.97;;;22.91;34.07
34374;BME280;20637;55.770;37.592;2023-06-01T12:24:38;99023.28;;;22.95;33.59
34374;BME280;20637;55.770;37.592;2023-06-01T12:27:12;99028.47;;;22.91;33.50
34374;BME280;20637;55.770;37.592;2023-06-01T12:29:39;99030.38;;;22.86;33.74
34374;BME280;20637;55.770;37.592;2023-06-01T12:32:07;99035.91;;;22.64;33.90
34374;BME280;20637;55.770;37.592;2023-06-01T12:34:32;99033.16;;;22.64;34.19
34374;BME280;20637;55.770;37.592;2023-06-01T12:36:58;99033.91;;;22.59;34.35
34374;BME280;20637;55.770;37.592;2023-06-01T12:39:32;99029.47;;;22.53;34.50
34374;BME280;20637;55.770;37.592;2023-06-01T12:42:02;99026.56;;;22.65;34.71
34374;BME280;20637;55.770;37.592;2023-06-01T12:44:28;99022.28;;;22.74;34.06
34374;BME280;20637;55.770;37.592;2023-06-01T12:46:57;99016.91;;;22.89;34.20
34374;BME280;20637;55.770;37.592;2023-06-01T12:49:26;99021.16;;;23.07;33.90
34374;BME280;20637;55.770;37.592;2023-06-01T12:51:51;99021.03;;;23.23;33.58
34374;BME280;20637;55.770;37.592;2023-06-01T12:54:17;99020.00;;;23.35;33.68
34374;BME280;20637;55.770;37.592;2023-06-01T12:56:43;99023.88;;;23.39;33.56
34374;BME280;20637;55.770;37.592;2023-06-01T12:59:08;99012.03;;;23.38;33.36
34374;BME280;20637;55.770;37.592;2023-06-01T13:01:34;99022.75;;;23.35;33.27
34374;BME280;20637;55.770;37.592;2023-06-01T13:03:59;99022.88;;;23.13;33.87
34374;BME280;20637;55.770;37.592;2023-06-01T13:06:25;99013.03;;;22.85;33.77
34374;BME280;20637;55.770;37.592;2023-06-01T13:08:50;99011.59;;;22.77;33.99
34374;BME280;20637;55.770;37.592;2023-06-01T13:11:17;99016.91;;;22.89;33.87
34374;BME280;20637;55.770;37.592;2023-06-01T13:13:43;99012.75;;;22.87;34.05
34374;BME280;20637;55.770;37.592;2023-06-01T13:16:08;99015.94;;;22.73;34.51
34374;BME280;20637;55.770;37.592;2023-06-01T13:18:33;99017.75;;;22.63;34.55